createdAt,value
2022-09-22T00:01:43.862Z,-59
2022-09-22T00:04:13.067Z,-58
2022-09-22T00:06:43.872Z,-59
2022-09-22T00:09:11.606Z,-59
2022-09-22T00:11:42.472Z,-58
2022-09-22T00:14:14.368Z,-58
2022-09-22T00:16:44.879Z,-59
2022-09-22T00:19:12.921Z,-59
2022-09-22T00:21:39.323Z,-58
2022-09-22T00:24:07.994Z,-58
2022-09-22T00:26:35.702Z,-59
2022-09-22T00:29:02.570Z,-58
2022-09-22T00:31:29.957Z,-58
2022-09-22T00:33:56.612Z,-58
2022-09-22T00:36:25.678Z,-58
2022-09-22T00:38:52.644Z,-58
2022-09-22T00:41:21.138Z,-59
2022-09-22T00:43:48.910Z,-59
2022-09-22T00:46:18.708Z,-59
2022-09-22T00:48:50.954Z,-58
2022-09-22T00:51:21.111Z,-58
2022-09-22T00:53:47.770Z,-59
2022-09-22T00:56:16.095Z,-59
2022-09-22T00:58:45.231Z,-58
2022-09-22T01:01:11.707Z,-59
2022-09-22T01:03:42.680Z,-58
2022-09-22T01:06:13.033Z,-58
2022-09-22T01:08:40.052Z,-59
2022-09-22T01:11:07.597Z,-58
2022-09-22T01:13:39.883Z,-58
2022-09-22T01:16:20.877Z,-58
2022-09-22T01:18:50.446Z,-58
2022-09-22T01:21:20.413Z,-58
2022-09-22T01:23:50.619Z,-57
2022-09-22T01:26:30.866Z,-59
2022-09-22T01:29:22.998Z,-58
2022-09-22T01:31:49.341Z,-58
2022-09-22T01:34:18.480Z,-57
2022-09-22T01:36:49.193Z,-58
2022-09-22T01:39:23.287Z,-58
2022-09-22T01:41:53.758Z,-58
2022-09-22T01:44:29.614Z,-57
2022-09-22T01:46:57.620Z,-58
2022-09-22T01:49:25.448Z,-58
2022-09-22T01:52:00.503Z,-57
2022-09-22T01:54:36.446Z,-58
2022-09-22T01:57:23.662Z,-58
2022-09-22T01:59:53.310Z,-58
2022-09-22T02:02:23.286Z,-57
2022-09-22T02:04:53.616Z,-57
2022-09-22T02:07:31.102Z,-59
2022-09-22T02:09:59.649Z,-58
2022-09-22T02:12:26.096Z,-58
2022-09-22T02:14:53.346Z,-57
2022-09-22T02:17:22.929Z,-57
2022-09-22T02:19:50.655Z,-58
2022-09-22T02:22:17.464Z,-58
2022-09-22T02:24:45.667Z,-58
2022-09-22T02:27:14.666Z,-58
2022-09-22T02:29:43.922Z,-58
2022-09-22T02:32:12.142Z,-58
2022-09-22T02:34:38.657Z,-58
2022-09-22T02:37:23.467Z,-58
2022-09-22T02:39:49.863Z,-58
2022-09-22T02:42:19.227Z,-58
2022-09-22T02:44:51.687Z,-85
2022-09-22T02:47:32.404Z,-84
2022-09-22T02:49:59.569Z,-84
2022-09-22T02:52:26.505Z,-84
2022-09-22T02:54:56.915Z,-84
2022-09-22T02:57:23.303Z,-84
2022-09-22T02:59:49.650Z,-85
2022-09-22T03:02:19.268Z,-85
2022-09-22T03:04:45.796Z,-84
2022-09-22T03:07:15.025Z,-84
2022-09-22T03:09:41.499Z,-84
2022-09-22T03:12:07.901Z,-83
2022-09-22T03:14:34.274Z,-84
2022-09-22T03:17:00.690Z,-85
2022-09-22T03:19:27.458Z,-84
2022-09-22T03:21:53.856Z,-85
2022-09-22T03:24:20.310Z,-86
2022-09-22T03:26:46.697Z,-85
2022-09-22T03:29:13.090Z,-86
2022-09-22T03:31:39.746Z,-85
2022-09-22T03:34:06.142Z,-87
2022-09-22T03:36:32.840Z,-84
2022-09-22T03:39:00.622Z,-86
2022-09-22T03:41:27.250Z,-85
2022-09-22T03:43:53.707Z,-85
2022-09-22T03:46:20.539Z,-83
2022-09-22T03:48:47.047Z,-83
2022-09-22T03:51:13.393Z,-84
2022-09-22T03:53:40.151Z,-84
2022-09-22T03:56:07.514Z,-85
2022-09-22T03:58:34.196Z,-84
2022-09-22T04:01:00.750Z,-84
2022-09-22T04:03:27.206Z,-82
2022-09-22T04:05:53.585Z,-84
2022-09-22T04:08:20.188Z,-83
2022-09-22T04:10:46.846Z,-83
2022-09-22T04:13:13.927Z,-82
2022-09-22T04:15:40.731Z,-84
2022-09-22T04:18:07.094Z,-83
2022-09-22T04:20:33.840Z,-82
2022-09-22T04:23:00.217Z,-84
2022-09-22T04:25:27.209Z,-82
2022-09-22T04:27:54.058Z,-83
2022-09-22T04:30:20.446Z,-85
2022-09-22T04:32:46.815Z,-84
2022-09-22T04:35:13.177Z,-85
2022-09-22T04:37:39.560Z,-84
2022-09-22T04:40:06.248Z,-83
2022-09-22T04:42:32.645Z,-84
2022-09-22T04:45:02.112Z,-84
2022-09-22T04:47:31.511Z,-84
2022-09-22T04:49:58.158Z,-85
2022-09-22T04:52:24.802Z,-83
2022-09-22T04:54:51.209Z,-86
2022-09-22T04:57:20.455Z,-87
2022-09-22T04:59:47.178Z,-84
2022-09-22T05:02:13.685Z,-85
2022-09-22T05:04:40.121Z,-85
2022-09-22T05:07:06.493Z,-86
2022-09-22T05:09:33.342Z,-86
2022-09-22T05:12:01.290Z,-86
2022-09-22T05:14:28.421Z,-85
2022-09-22T05:16:54.923Z,-87
2022-09-22T05:19:21.465Z,-86
2022-09-22T05:21:47.856Z,-88
2022-09-22T05:24:14.216Z,-87
2022-09-22T05:26:41.812Z,-88
2022-09-22T05:29:08.420Z,-85
2022-09-22T05:31:34.897Z,-85
2022-09-22T05:34:01.663Z,-86
2022-09-22T05:36:28.087Z,-85
2022-09-22T05:38:54.465Z,-86
2022-09-22T05:41:21.079Z,-86
2022-09-22T05:43:47.442Z,-86
2022-09-22T05:46:13.845Z,-86
2022-09-22T05:48:40.270Z,-85
2022-09-22T05:51:06.694Z,-85
2022-09-22T05:53:33.096Z,-86
2022-09-22T05:56:00.201Z,-83
2022-09-22T05:58:26.633Z,-85
2022-09-22T06:00:55.951Z,-86
2022-09-22T06:03:22.437Z,-85
2022-09-22T06:05:48.819Z,-86
2022-09-22T06:08:15.225Z,-85
2022-09-22T06:10:42.870Z,-86
2022-09-22T06:13:10.162Z,-85
2022-09-22T06:15:36.738Z,-86
2022-09-22T06:18:07.306Z,-86
2022-09-22T06:20:34.249Z,-85
2022-09-22T06:23:00.667Z,-85
2022-09-22T06:25:28.618Z,-86
2022-09-22T06:28:02.331Z,-86
2022-09-22T06:30:28.838Z,-86
2022-09-22T06:32:56.232Z,-85
2022-09-22T06:35:22.681Z,-86
2022-09-22T06:37:56.800Z,-85
2022-09-22T06:40:29.271Z,-85
2022-09-22T06:42:59.766Z,-85
2022-09-22T06:45:26.915Z,-86
2022-09-22T06:48:00.905Z,-85
2022-09-22T06:50:38.359Z,-85
2022-09-22T06:53:07.706Z,-86
2022-09-22T06:55:35.118Z,-86
2022-09-22T06:58:03.004Z,-86
2022-09-22T07:00:33.744Z,-86
2022-09-22T07:03:17.153Z,-86
2022-09-22T07:05:51.617Z,-86
2022-09-22T07:08:18.219Z,-87
2022-09-22T07:10:45.503Z,-85
2022-09-22T07:13:11.955Z,-86
2022-09-22T07:15:39.063Z,-87
2022-09-22T07:18:05.584Z,-87
2022-09-22T07:20:33.752Z,-87
2022-09-22T07:23:03.236Z,-87
2022-09-22T07:25:35.980Z,-85
2022-09-22T07:28:05.408Z,-83
2022-09-22T07:30:32.318Z,-86
2022-09-22T07:32:58.788Z,-84
2022-09-22T07:35:25.314Z,-85
2022-09-22T07:38:03.367Z,-85
2022-09-22T07:40:29.846Z,-86
2022-09-22T07:42:56.592Z,-85
2022-09-22T07:45:29.382Z,-85
2022-09-22T07:48:14.961Z,-85
2022-09-22T07:50:41.585Z,-83
2022-09-22T07:53:07.968Z,-86
2022-09-22T07:55:35.015Z,-85
2022-09-22T07:58:01.496Z,-85
2022-09-22T08:00:33.041Z,-86
2022-09-22T08:03:00.142Z,-86
2022-09-22T08:05:28.241Z,-86
2022-09-22T08:07:57.671Z,-86
2022-09-22T08:10:24.806Z,-87
2022-09-22T08:12:55.010Z,-91
2022-09-22T08:15:27.140Z,-88
2022-09-22T08:17:59.039Z,-89
2022-09-22T08:20:30.043Z,-91
2022-09-22T08:23:03.207Z,-85
2022-09-22T08:25:30.509Z,-83
2022-09-22T08:27:58.191Z,-84
2022-09-22T08:30:24.777Z,-86
2022-09-22T08:32:51.237Z,-85
2022-09-22T08:35:18.476Z,-85
2022-09-22T08:37:45.718Z,-85
2022-09-22T08:40:18.963Z,-86
2022-09-22T08:42:45.671Z,-86
2022-09-22T08:45:26.159Z,-86
2022-09-22T08:48:13.676Z,-86
2022-09-22T08:51:05.174Z,-85
2022-09-22T08:53:33.870Z,-84
2022-09-22T08:56:05.368Z,-85
2022-09-22T08:58:32.242Z,-84
2022-09-22T09:01:05.169Z,-85
2022-09-22T09:03:41.410Z,-84
2022-09-22T09:06:25.714Z,-84
2022-09-22T09:09:27.530Z,-83
2022-09-22T09:12:00.344Z,-84
2022-09-22T09:14:32.056Z,-87
2022-09-22T09:17:00.624Z,-84
2022-09-22T09:19:32.021Z,-86
2022-09-22T09:22:02.164Z,-85
2022-09-22T09:27:21.766Z,-86
2022-09-22T09:30:02.052Z,-86
2022-09-22T09:32:48.994Z,-85
2022-09-22T09:35:23.070Z,-86
2022-09-22T09:37:49.865Z,-87
2022-09-22T09:40:19.082Z,-87
2022-09-22T09:42:56.035Z,-85
2022-09-22T09:45:26.471Z,-86
2022-09-22T09:48:08.173Z,-85
2022-09-22T09:50:35.632Z,-84
2022-09-22T09:53:02.000Z,-85
2022-09-22T09:55:29.095Z,-84
2022-09-22T09:58:07.630Z,-85
2022-09-22T10:00:35.189Z,-85
2022-09-22T10:03:13.601Z,-86
2022-09-22T10:05:42.052Z,-86
2022-09-22T10:08:16.516Z,-86
2022-09-22T10:10:43.093Z,-86
2022-09-22T10:13:09.460Z,-85
2022-09-22T10:15:37.049Z,-85
2022-09-22T10:18:04.011Z,-85
2022-09-22T10:20:34.446Z,-85
2022-09-22T10:23:21.219Z,-86
2022-09-22T10:25:49.821Z,-87
2022-09-22T10:28:20.514Z,-86
2022-09-22T10:31:01.222Z,-86
2022-09-22T10:33:27.724Z,-86
2022-09-22T10:35:55.830Z,-87
2022-09-22T10:38:23.763Z,-87
2022-09-22T10:40:55.090Z,-86
2022-09-22T10:43:36.151Z,-85
2022-09-22T10:46:02.672Z,-86
2022-09-22T10:48:36.426Z,-86
2022-09-22T10:51:11.794Z,-86
2022-09-22T10:53:54.040Z,-85
2022-09-22T10:56:33.826Z,-86
2022-09-22T10:59:00.203Z,-85
2022-09-22T11:01:33.179Z,-86
2022-09-22T11:04:23.008Z,-84
2022-09-22T11:07:26.349Z,-85
2022-09-22T11:10:11.613Z,-85
2022-09-22T11:12:47.242Z,-87
2022-09-22T11:15:26.091Z,-87
2022-09-22T11:18:10.997Z,-85
2022-09-22T11:20:39.249Z,-85
2022-09-22T11:23:08.534Z,-86
2022-09-22T11:25:39.531Z,-87
2022-09-22T11:28:34.781Z,-87
2022-09-22T11:31:02.218Z,-85
2022-09-22T11:33:31.492Z,-85
2022-09-22T11:36:07.117Z,-86
2022-09-22T11:38:53.815Z,-87
2022-09-22T11:41:26.017Z,-88
2022-09-22T11:44:03.311Z,-88
2022-09-22T11:46:32.732Z,-85
2022-09-22T11:49:15.699Z,-85
2022-09-22T11:51:57.411Z,-87
2022-09-22T11:54:46.119Z,-87
2022-09-22T11:57:13.834Z,-87
2022-09-22T11:59:40.250Z,-88
2022-09-22T12:02:30.102Z,-86
2022-09-22T12:05:02.520Z,-86
2022-09-22T12:07:44.843Z,-86
2022-09-22T12:10:17.784Z,-86
2022-09-22T12:12:48.906Z,-85
2022-09-22T12:15:30.651Z,-84
2022-09-22T12:18:15.267Z,-91
2022-09-22T12:20:49.585Z,-89
2022-09-22T12:23:19.118Z,-84
2022-09-22T12:25:49.018Z,-84
2022-09-22T12:28:26.695Z,-85
2022-09-22T12:30:53.162Z,-85
2022-09-22T12:33:22.015Z,-84
2022-09-22T12:35:55.960Z,-86
2022-09-22T12:38:22.742Z,-85
2022-09-22T12:40:50.828Z,-84
2022-09-22T12:43:20.250Z,-86
2022-09-22T12:45:47.610Z,-85
2022-09-22T12:48:16.668Z,-85
2022-09-22T12:50:43.953Z,-85
2022-09-22T12:53:22.641Z,-85
2022-09-22T12:55:53.090Z,-85
2022-09-22T12:58:23.498Z,-84
2022-09-22T13:00:51.343Z,-86
2022-09-22T13:03:27.072Z,-85
2022-09-22T13:05:54.932Z,-86
2022-09-22T13:08:26.278Z,-84
2022-09-22T13:10:54.166Z,-87
2022-09-22T13:13:24.603Z,-86
2022-09-22T13:15:57.149Z,-84
2022-09-22T13:18:37.521Z,-84
2022-09-22T13:21:03.942Z,-85
2022-09-22T13:23:30.527Z,-85
2022-09-22T13:26:05.069Z,-84
2022-09-22T13:28:31.433Z,-85
2022-09-22T13:31:10.539Z,-87
2022-09-22T13:33:36.962Z,-87
2022-09-22T13:36:08.548Z,-83
2022-09-22T13:38:45.626Z,-85
2022-09-22T13:41:28.733Z,-87
2022-09-22T13:43:56.975Z,-86
2022-09-22T13:46:37.356Z,-82
2022-09-22T13:49:06.212Z,-86
2022-09-22T13:51:32.938Z,-87
2022-09-22T13:53:59.332Z,-86
2022-09-22T13:56:26.423Z,-87
2022-09-22T13:58:55.591Z,-86
2022-09-22T14:01:23.575Z,-88
2022-09-22T14:03:51.043Z,-86
2022-09-22T14:06:19.345Z,-86
2022-09-22T14:08:47.018Z,-88
2022-09-22T14:11:18.440Z,-88
2022-09-22T14:13:45.431Z,-86
2022-09-22T14:16:21.252Z,-87
2022-09-22T14:18:49.121Z,-85
2022-09-22T14:21:15.705Z,-85
2022-09-22T14:23:43.534Z,-85
2022-09-22T14:26:20.179Z,-80
2022-09-22T14:28:46.741Z,-86
2022-09-22T14:31:15.295Z,-85
2022-09-22T14:33:45.700Z,-85
2022-09-22T14:36:15.127Z,-85
2022-09-22T14:38:47.549Z,-86
2022-09-22T14:41:22.661Z,-86
2022-09-22T14:43:50.887Z,-85
2022-09-22T14:46:33.901Z,-85
2022-09-22T14:49:19.231Z,-86
2022-09-22T14:51:47.666Z,-85
2022-09-22T14:54:16.068Z,-85
2022-09-22T14:56:43.873Z,-85
2022-09-22T14:59:38.187Z,-86
2022-09-22T15:02:35.181Z,-87
2022-09-22T15:05:03.577Z,-87
2022-09-22T15:07:31.387Z,-86
2022-09-22T15:09:59.281Z,-86
2022-09-22T15:12:46.247Z,-86
2022-09-22T15:15:16.607Z,-86
2022-09-22T15:18:02.649Z,-85
2022-09-22T15:20:31.890Z,-85
2022-09-22T15:22:58.449Z,-85
2022-09-22T15:25:24.898Z,-86
2022-09-22T15:27:53.340Z,-86
2022-09-22T15:30:20.752Z,-85
2022-09-22T15:32:48.222Z,-85
2022-09-22T15:35:17.725Z,-86
2022-09-22T15:37:47.944Z,-85
2022-09-22T15:40:21.278Z,-88
2022-09-22T15:43:09.094Z,-85
2022-09-22T15:45:35.983Z,-83
2022-09-22T15:48:02.504Z,-82
2022-09-22T15:50:29.333Z,-83
2022-09-22T15:52:55.932Z,-83
2022-09-22T15:55:23.741Z,-84
2022-09-22T15:57:52.379Z,-86
2022-09-22T16:00:20.527Z,-84
2022-09-22T16:02:47.461Z,-84
2022-09-22T16:05:15.163Z,-84
2022-09-22T16:07:45.086Z,-84
2022-09-22T16:10:15.769Z,-84
2022-09-22T16:12:42.571Z,-84
2022-09-22T16:15:14.238Z,-83
2022-09-22T16:17:42.454Z,-83
2022-09-22T16:20:13.530Z,-84
2022-09-22T16:22:40.424Z,-84
2022-09-22T16:25:07.263Z,-83
2022-09-22T16:27:33.799Z,-84
2022-09-22T16:30:00.422Z,-84
2022-09-22T16:32:26.871Z,-83
2022-09-22T16:34:53.558Z,-84
2022-09-22T16:37:20.794Z,-85
2022-09-22T16:39:48.363Z,-84
2022-09-22T16:42:15.386Z,-84
2022-09-22T16:44:42.385Z,-83
2022-09-22T16:47:08.975Z,-85
2022-09-22T16:49:35.766Z,-84
2022-09-22T16:52:02.187Z,-84
2022-09-22T16:54:28.721Z,-84
2022-09-22T16:56:55.189Z,-83
2022-09-22T16:59:22.930Z,-85
2022-09-22T17:01:50.026Z,-87
2022-09-22T17:04:17.405Z,-83
2022-09-22T17:06:44.189Z,-83
2022-09-22T17:09:11.379Z,-84
2022-09-22T17:11:39.319Z,-83
2022-09-22T17:14:11.932Z,-83
2022-09-22T17:16:40.119Z,-84
2022-09-22T17:19:09.224Z,-83
2022-09-22T17:21:36.633Z,-83
2022-09-22T17:24:04.125Z,-83
2022-09-22T17:26:31.891Z,-84
2022-09-22T17:28:59.719Z,-83
2022-09-22T17:31:31.284Z,-83
2022-09-22T17:33:58.107Z,-83
2022-09-22T17:36:25.417Z,-83
2022-09-22T17:38:53.123Z,-83
2022-09-22T17:41:20.525Z,-84
2022-09-22T17:43:48.117Z,-83
2022-09-22T17:46:15.565Z,-85
2022-09-22T17:49:00.484Z,-84
2022-09-22T17:51:49.527Z,-84
2022-09-22T17:54:36.731Z,-86
2022-09-22T17:57:03.273Z,-84
2022-09-22T17:59:31.525Z,-85
2022-09-22T18:01:58.838Z,-85
2022-09-22T18:04:25.512Z,-85
2022-09-22T18:06:51.966Z,-85
2022-09-22T18:09:19.003Z,-84
2022-09-22T18:11:46.233Z,-86
2022-09-22T18:14:12.862Z,-86
2022-09-22T18:16:39.713Z,-86
2022-09-22T18:19:06.750Z,-85
2022-09-22T18:21:34.076Z,-85
2022-09-22T18:24:00.868Z,-86
2022-09-22T18:26:31.089Z,-83
2022-09-22T18:28:58.037Z,-84
2022-09-22T18:31:27.532Z,-82
2022-09-22T18:33:58.315Z,-83
2022-09-22T18:36:28.180Z,-84
2022-09-22T18:38:55.265Z,-84
2022-09-22T18:41:22.165Z,-83
2022-09-22T18:43:52.230Z,-83
2022-09-22T18:46:20.839Z,-83
2022-09-22T18:48:48.711Z,-84
2022-09-22T18:51:18.628Z,-84
2022-09-22T18:53:45.060Z,-83
2022-09-22T18:56:15.200Z,-83
2022-09-22T18:58:42.819Z,-83
2022-09-22T19:01:12.557Z,-83
2022-09-22T19:03:39.694Z,-85
2022-09-22T19:06:06.220Z,-84
2022-09-22T19:08:33.325Z,-83
2022-09-22T19:11:05.272Z,-84
2022-09-22T19:13:31.657Z,-83
2022-09-22T19:15:58.776Z,-83
2022-09-22T19:18:25.203Z,-83
2022-09-22T19:20:51.594Z,-83
2022-09-22T19:23:20.699Z,-83
2022-09-22T19:25:49.929Z,-84
2022-09-22T19:28:17.069Z,-84
2022-09-22T19:30:43.699Z,-84
2022-09-22T19:33:10.437Z,-83
2022-09-22T19:35:39.199Z,-84
2022-09-22T19:38:06.105Z,-86
2022-09-22T19:40:34.141Z,-85
2022-09-22T19:43:03.201Z,-86
2022-09-22T19:45:30.525Z,-84
2022-09-22T19:48:04.616Z,-85
2022-09-22T19:50:31.076Z,-85
2022-09-22T19:52:57.529Z,-84
2022-09-22T19:55:24.102Z,-85
2022-09-22T19:57:54.267Z,-84
2022-09-22T20:00:26.982Z,-84
2022-09-22T20:02:59.406Z,-84
2022-09-22T20:05:27.866Z,-84
2022-09-22T20:07:56.067Z,-83
2022-09-22T20:10:22.724Z,-83
2022-09-22T20:13:26.516Z,-85
2022-09-22T20:15:55.374Z,-83
2022-09-22T20:18:22.735Z,-83
2022-09-22T20:20:52.782Z,-83
2022-09-22T20:23:22.699Z,-83
2022-09-22T20:25:50.144Z,-85
2022-09-22T20:28:16.914Z,-86
2022-09-22T20:30:43.612Z,-84
2022-09-22T20:33:20.694Z,-84
2022-09-22T20:35:51.705Z,-83
2022-09-22T20:38:18.663Z,-83
2022-09-22T20:40:45.851Z,-83
2022-09-22T20:43:14.102Z,-84
2022-09-22T20:45:41.246Z,-83
2022-09-22T20:48:08.110Z,-84
2022-09-22T20:50:34.655Z,-83
2022-09-22T20:53:01.132Z,-83
2022-09-22T20:55:27.572Z,-84
2022-09-22T20:57:54.020Z,-85
2022-09-22T21:00:20.553Z,-85
2022-09-22T21:02:47.437Z,-85
2022-09-22T21:05:13.987Z,-85
2022-09-22T21:07:40.423Z,-85
2022-09-22T21:10:25.313Z,-85
2022-09-22T21:12:55.121Z,-86
2022-09-22T21:15:22.808Z,-85
2022-09-22T21:17:49.868Z,-83
2022-09-22T21:20:16.398Z,-83
2022-09-22T21:22:45.142Z,-83
2022-09-22T21:25:11.572Z,-83
2022-09-22T21:27:38.075Z,-83
2022-09-22T21:30:04.689Z,-84
2022-09-22T21:32:31.338Z,-83
2022-09-22T21:34:57.947Z,-83
2022-09-22T21:37:25.028Z,-83
2022-09-22T21:39:51.511Z,-83
2022-09-22T21:42:17.987Z,-82
2022-09-22T21:44:46.495Z,-83
2022-09-22T21:47:12.954Z,-84
2022-09-22T21:49:39.420Z,-83
2022-09-22T21:52:05.804Z,-83
2022-09-22T21:54:32.191Z,-84
2022-09-22T21:56:58.638Z,-83
2022-09-22T21:59:25.055Z,-82
2022-09-22T22:01:51.550Z,-82
2022-09-22T22:04:18.147Z,-81
2022-09-22T22:06:45.963Z,-81
2022-09-22T22:09:12.397Z,-81
2022-09-22T22:11:49.436Z,-81
2022-09-22T22:14:17.051Z,-81
2022-09-22T22:16:44.702Z,-80
2022-09-22T22:19:12.111Z,-85
2022-09-22T22:21:40.969Z,-82
2022-09-22T22:24:26.883Z,-83
2022-09-22T22:27:11.206Z,-84
2022-09-22T22:29:41.286Z,-83
2022-09-22T22:32:08.663Z,-83
2022-09-22T22:34:35.148Z,-83
2022-09-22T22:37:01.575Z,-83
2022-09-22T22:39:28.408Z,-82
2022-09-22T22:41:57.281Z,-83
2022-09-22T22:44:23.753Z,-83
2022-09-22T22:46:50.679Z,-84
2022-09-22T22:49:17.391Z,-84
2022-09-22T22:51:43.806Z,-84
2022-09-22T22:54:11.700Z,-82
2022-09-22T22:56:41.771Z,-82
2022-09-22T22:59:09.181Z,-82
2022-09-22T23:01:35.688Z,-82
2022-09-22T23:04:03.263Z,-82
2022-09-22T23:06:34.636Z,-82
2022-09-22T23:09:01.333Z,-82
2022-09-22T23:11:29.138Z,-82
2022-09-22T23:14:03.400Z,-82
2022-09-22T23:16:34.483Z,-82
2022-09-22T23:19:02.190Z,-82
2022-09-22T23:21:30.860Z,-81
2022-09-22T23:23:57.575Z,-83
2022-09-22T23:26:28.917Z,-83
2022-09-22T23:28:55.805Z,-83
2022-09-22T23:31:22.184Z,-84
2022-09-22T23:33:49.185Z,-83
2022-09-22T23:36:18.021Z,-83
2022-09-22T23:38:44.586Z,-84
2022-09-22T23:41:11.261Z,-82
2022-09-22T23:43:37.819Z,-83
2022-09-22T23:46:04.812Z,-83
2022-09-22T23:48:32.043Z,-83
2022-09-22T23:50:58.965Z,-84
2022-09-22T23:53:27.865Z,-83
2022-09-22T23:55:54.264Z,-83
2022-09-22T23:58:20.729Z,-83
